Time;durP1;ratioP1;P1;durP2;ratioP2;P2;SDS_P1;SDS_P2;PMS_P1;PMS_P2;Temp;Humidity;BMP_temperature;BMP_pressure;BME280_temperature;BME280_humidity;BME280_pressure;Samples;Min_cycle;Max_cycle;Signal;HPM_P1;HPM_P2
2021/10/21 00:02:02;;;;;;;16.23;9.60;;;;;;;14.51;48.23;100348.06;1787426;78;21772;-70
2021/10/21 00:04:29;;;;;;;13.70;9.47;;;;;;;14.47;48.33;100347.81;1776327;79;21212;-70
2021/10/21 00:06:56;;;;;;;14.83;9.67;;;;;;;14.45;48.39;100358.61;1795896;78;21352;-71
2021/10/21 00:09:23;;;;;;;14.40;9.23;;;;;;;14.43;48.47;100354.86;1795342;78;21297;-71
2021/10/21 00:11:51;;;;;;;14.13;9.30;;;;;;;14.41;48.52;100350.84;1785367;79;21283;-71
2021/10/21 00:14:17;;;;;;;14.07;10.10;;;;;;;14.37;48.59;100353.31;1792456;78;21106;-71
2021/10/21 00:16:45;;;;;;;13.87;9.73;;;;;;;14.41;48.56;100357.56;1793400;78;21229;-71
2021/10/21 00:19:12;;;;;;;14.70;9.73;;;;;;;14.38;48.59;100352.77;1796255;78;21350;-71
2021/10/21 00:21:38;;;;;;;14.50;10.17;;;;;;;14.33;48.69;100350.16;1797338;79;21308;-71
2021/10/21 00:24:04;;;;;;;15.57;9.93;;;;;;;14.28;48.81;100345.11;1798143;78;21090;-72
2021/10/21 00:26:31;;;;;;;13.63;10.13;;;;;;;14.16;49.00;100343.36;1775008;79;21067;-71
2021/10/21 00:28:58;;;;;;;14.53;10.33;;;;;;;14.11;49.13;100342.60;1780588;79;21346;-71
2021/10/21 00:31:24;;;;;;;12.83;9.80;;;;;;;14.10;49.26;100335.64;1783483;78;21300;-70
2021/10/21 00:33:51;;;;;;;16.07;10.27;;;;;;;14.07;49.39;100334.32;1792486;78;21268;-70
2021/10/21 00:36:17;;;;;;;12.60;9.53;;;;;;;14.06;49.47;100343.47;1793195;78;21553;-71
2021/10/21 00:38:44;;;;;;;13.17;9.47;;;;;;;14.02;49.52;100331.16;1797515;78;21222;-70
2021/10/21 00:41:11;;;;;;;13.07;10.03;;;;;;;13.99;49.68;100336.30;1787858;79;21246;-70
2021/10/21 00:43:40;;;;;;;15.27;10.10;;;;;;;13.95;49.81;100321.82;1812855;77;21112;-71
2021/10/21 00:46:09;;;;;;;15.03;10.33;;;;;;;13.92;49.94;100321.05;1812320;77;21938;-70
2021/10/21 00:48:35;;;;;;;14.28;9.95;;;;;;;13.88;50.10;100322.70;1818454;77;21780;-71
2021/10/21 00:51:06;;;;;;;12.13;8.87;;;;;;;13.83;50.19;100319.00;1811542;77;21034;-71
2021/10/21 00:53:33;;;;;;;13.40;9.63;;;;;;;13.81;50.26;100313.10;1787591;78;21759;-69
2021/10/21 00:56:03;;;;;;;15.77;10.20;;;;;;;13.76;50.43;100306.45;1768229;80;21003;-70
2021/10/21 00:58:32;;;;;;;14.47;10.20;;;;;;;13.72;50.53;100308.12;1780346;78;22982;-70
2021/10/21 01:00:59;;;;;;;14.15;10.88;;;;;;;13.71;50.63;100299.78;1789457;78;21780;-70
2021/10/21 01:03:27;;;;;;;14.23;10.58;;;;;;;13.69;50.79;100292.58;1791902;78;21027;-71
2021/10/21 01:05:53;;;;;;;13.22;10.65;;;;;;;13.64;50.85;100292.61;1787192;79;21000;-70
2021/10/21 01:08:20;;;;;;;14.90;11.00;;;;;;;13.61;50.98;100294.52;1787746;78;21039;-71
2021/10/21 01:10:47;;;;;;;13.30;10.13;;;;;;;13.57;51.13;100290.27;1786745;78;21678;-71
2021/10/21 01:13:14;;;;;;;14.60;9.65;;;;;;;13.55;51.26;100284.91;1795430;78;21124;-70
2021/10/21 01:15:42;;;;;;;15.35;10.53;;;;;;;13.51;51.40;100289.25;1793493;78;21042;-70
2021/10/21 01:18:08;;;;;;;12.90;10.00;;;;;;;13.47;51.50;100280.97;1795948;78;20991;-69
2021/10/21 01:20:35;;;;;;;15.00;10.38;;;;;;;13.45;51.60;100270.26;1795709;79;21006;-71
2021/10/21 01:23:02;;;;;;;17.15;11.40;;;;;;;13.40;51.70;100272.46;1780643;79;21077;-71
2021/10/21 01:25:30;;;;;;;16.15;11.45;;;;;;;13.31;51.90;100274.94;1798474;78;21522;-70
2021/10/21 01:27:56;;;;;;;13.83;10.95;;;;;;;13.25;52.09;100272.03;1801187;78;20951;-70
2021/10/21 01:30:26;;;;;;;14.28;10.25;;;;;;;13.25;52.14;100278.74;1798526;78;21561;-71
2021/10/21 01:32:55;;;;;;;15.30;11.33;;;;;;;13.25;52.16;100273.92;1797179;78;20999;-69
2021/10/21 01:35:22;;;;;;;15.03;10.93;;;;;;;13.23;52.23;100271.51;1801234;78;21003;-70
2021/10/21 01:37:50;;;;;;;14.10;11.03;;;;;;;13.22;52.30;100263.18;1799814;78;21255;-71
2021/10/21 01:40:19;;;;;;;15.98;11.80;;;;;;;13.22;52.45;100259.70;1799377;78;21078;-71
2021/10/21 01:42:45;;;;;;;16.37;11.40;;;;;;;13.19;52.47;100264.29;1792947;78;21057;-70
2021/10/21 01:45:18;;;;;;;16.90;12.37;;;;;;;13.16;52.54;100261.62;1793323;78;21624;-70
2021/10/21 01:47:45;;;;;;;17.20;12.03;;;;;;;13.15;52.67;100267.53;1797529;78;21054;-70
2021/10/21 01:50:12;;;;;;;16.40;12.20;;;;;;;13.15;52.65;100261.37;1800175;78;21119;-71
2021/10/21 01:52:38;;;;;;;16.23;11.78;;;;;;;13.12;52.68;100256.02;1776952;78;21621;-71
2021/10/21 01:55:06;;;;;;;18.90;12.78;;;;;;;13.12;52.73;100255.22;1796730;78;21070;-70
2021/10/21 01:57:33;;;;;;;17.70;12.20;;;;;;;13.10;52.78;100250.16;1781785;78;21502;-71
2021/10/21 01:59:59;;;;;;;17.80;12.60;;;;;;;13.09;52.79;100253.11;1779146;79;21039;-70
2021/10/21 02:02:26;;;;;;;16.20;11.65;;;;;;;13.07;52.89;100248.58;1781968;78;21722;-71
2021/10/21 02:04:53;;;;;;;18.35;11.78;;;;;;;13.06;52.95;100254.48;1773629;79;21011;-71
2021/10/21 02:07:20;;;;;;;17.67;11.75;;;;;;;13.05;53.02;100246.70;1793458;78;21054;-71
2021/10/21 02:09:47;;;;;;;15.68;11.33;;;;;;;13.03;53.03;100242.16;1804418;78;21018;-71
2021/10/21 02:12:13;;;;;;;15.03;10.93;;;;;;;13.02;53.10;100237.34;1821700;78;21046;-71
2021/10/21 02:14:40;;;;;;;14.87;11.57;;;;;;;13.00;53.20;100236.84;1785364;78;22013;-71
2021/10/21 02:17:07;;;;;;;16.23;11.73;;;;;;;12.99;53.24;100241.13;1797949;77;21065;-70
2021/10/21 02:19:35;;;;;;;15.78;12.15;;;;;;;13.02;53.19;100237.88;1784421;78;21169;-71
2021/10/21 02:22:03;;;;;;;17.80;12.00;;;;;;;13.02;53.22;100240.56;1787945;78;21077;-71
2021/10/21 02:24:29;;;;;;;18.35;12.43;;;;;;;12.99;53.29;100243.26;1787946;78;21113;-71
2021/10/21 02:26:56;;;;;;;17.57;12.90;;;;;;;12.96;53.37;100243.81;1786899;78;21055;-71
2021/10/21 02:29:23;;;;;;;16.17;12.98;;;;;;;12.93;53.46;100239.56;1788823;78;21051;-71
2021/10/21 02:31:50;;;;;;;15.95;11.60;;;;;;;12.90;53.57;100238.26;1799483;78;21037;-71
2021/10/21 02:34:17;;;;;;;15.95;12.70;;;;;;;12.88;53.70;100233.70;1789043;78;20999;-71
2021/10/21 02:36:44;;;;;;;18.40;13.08;;;;;;;12.84;53.79;100242.85;1802395;79;20982;-71
2021/10/21 02:39:10;;;;;;;17.32;12.85;;;;;;;12.82;53.85;100226.78;1819168;77;21072;-71
2021/10/21 02:41:37;;;;;;;17.57;12.95;;;;;;;12.80;53.98;100220.89;1807563;77;21030;-69
2021/10/21 02:44:04;;;;;;;18.57;12.58;;;;;;;12.76;54.04;100213.95;1817623;77;21075;-71
2021/10/21 02:46:31;;;;;;;18.02;13.25;;;;;;;12.74;54.10;100213.45;1810449;77;21466;-71
2021/10/21 02:48:58;;;;;;;17.87;12.75;;;;;;;12.72;54.23;100209.44;1806323;79;20992;-71
2021/10/21 02:51:26;;;;;;;16.80;13.30;;;;;;;12.68;54.38;100203.84;1782975;78;21364;-72
2021/10/21 02:53:52;;;;;;;16.37;11.97;;;;;;;12.64;54.49;100195.56;1801808;78;21518;-71
2021/10/21 02:56:19;;;;;;;17.17;12.80;;;;;;;12.61;54.61;100198.00;1794827;78;21499;-70
2021/10/21 02:58:46;;;;;;;16.95;12.43;;;;;;;12.57;54.82;100207.66;1798997;78;21481;-71
2021/10/21 03:01:13;;;;;;;16.90;12.95;;;;;;;12.55;54.89;100205.81;1797006;78;20968;-70
2021/10/21 03:03:40;;;;;;;16.97;12.20;;;;;;;12.52;54.95;100209.84;1799429;78;21234;-69
2021/10/21 03:06:08;;;;;;;16.77;12.88;;;;;;;12.50;55.05;100206.63;1807534;77;20975;-70
2021/10/21 03:08:34;;;;;;;16.05;12.55;;;;;;;12.48;55.15;100203.45;1808570;77;21054;-71
2021/10/21 03:11:02;;;;;;;17.27;12.68;;;;;;;12.47;55.23;100201.03;1795446;79;21098;-71
2021/10/21 03:13:31;;;;;;;16.20;12.85;;;;;;;12.43;55.29;100196.22;1793510;78;21608;-71
2021/10/21 03:15:58;;;;;;;18.65;13.50;;;;;;;12.40;55.35;100197.32;1787803;78;21145;-71
2021/10/21 03:18:24;;;;;;;17.12;13.50;;;;;;;12.37;55.45;100190.66;1811449;77;20983;-71
2021/10/21 03:20:51;;;;;;;17.50;13.00;;;;;;;12.33;55.59;100186.13;1794037;79;20944;-71
2021/10/21 03:23:19;;;;;;;17.73;12.60;;;;;;;12.29;55.78;100185.87;1786149;78;21046;-71
2021/10/21 03:25:46;;;;;;;18.85;13.25;;;;;;;12.30;55.77;100184.80;1793572;78;21042;-71
2021/10/21 03:28:13;;;;;;;20.27;13.48;;;;;;;12.29;55.82;100193.91;1793327;79;21687;-70
2021/10/21 03:30:40;;;;;;;16.90;13.15;;;;;;;12.23;55.99;100194.22;1796367;78;21178;-72
2021/10/21 03:33:06;;;;;;;17.73;13.22;;;;;;;12.14;56.24;100182.77;1784477;78;21010;-71
2021/10/21 03:35:33;;;;;;;19.07;14.18;;;;;;;12.17;56.27;100186.23;1790178;78;21012;-71
2021/10/21 03:37:59;;;;;;;19.48;14.03;;;;;;;12.19;56.30;100180.59;1799507;78;21007;-71
2021/10/21 03:40:26;;;;;;;17.67;13.15;;;;;;;12.17;56.34;100168.83;1800843;78;21888;-71
2021/10/21 03:42:52;;;;;;;16.45;13.18;;;;;;;12.17;56.44;100168.00;1794471;78;21042;-71
2021/10/21 03:45:19;;;;;;;18.60;13.90;;;;;;;12.16;56.46;100167.20;1791561;78;20987;-70
2021/10/21 03:47:46;;;;;;;19.73;14.03;;;;;;;12.18;56.45;100170.96;1801970;78;21040;-71
2021/10/21 03:50:13;;;;;;;16.95;13.65;;;;;;;12.17;56.45;100163.98;1794072;79;21097;-71
2021/10/21 03:52:39;;;;;;;18.27;13.32;;;;;;;12.17;56.48;100162.65;1777544;78;21731;-71
2021/10/21 03:55:07;;;;;;;16.73;14.53;;;;;;;12.16;56.50;100154.36;1794566;78;20987;-71
2021/10/21 03:57:34;;;;;;;18.80;14.30;;;;;;;12.14;56.61;100157.33;1795542;78;21043;-70
2021/10/21 04:00:01;;;;;;;18.00;13.75;;;;;;;12.13;56.66;100153.58;1796915;78;21089;-71
2021/10/21 04:02:28;;;;;;;20.80;15.13;;;;;;;12.14;56.66;100155.17;1792099;78;21505;-69
2021/10/21 04:04:57;;;;;;;18.75;14.18;;;;;;;12.11;56.72;100157.88;1789423;79;21041;-70
2021/10/21 04:07:23;;;;;;;17.40;13.58;;;;;;;12.12;56.75;100150.11;1782251;78;21058;-70
2021/10/21 04:09:50;;;;;;;17.27;13.28;;;;;;;12.12;56.73;100145.30;1780647;79;20954;-71
2021/10/21 04:12:18;;;;;;;17.95;13.20;;;;;;;12.09;56.82;100143.17;1753367;79;20948;-70
2021/10/21 04:14:45;;;;;;;18.42;14.70;;;;;;;12.08;56.89;100148.27;1799193;78;21002;-71
2021/10/21 04:17:12;;;;;;;18.77;14.05;;;;;;;12.06;56.93;100139.70;1794498;79;21114;-70
2021/10/21 04:19:39;;;;;;;18.48;14.40;;;;;;;12.03;57.05;100140.25;1779541;78;21089;-71
2021/10/21 04:22:06;;;;;;;18.27;14.15;;;;;;;12.03;57.07;100136.23;1781441;78;21597;-71
2021/10/21 04:24:32;;;;;;;18.87;14.53;;;;;;;12.03;57.12;100138.91;1779198;78;21074;-71
2021/10/21 04:26:59;;;;;;;18.12;14.00;;;;;;;12.01;57.18;100133.85;1791077;79;21022;-71
2021/10/21 04:29:25;;;;;;;19.23;14.47;;;;;;;12.00;57.24;100137.58;1778643;79;22053;-72
2021/10/21 04:31:52;;;;;;;20.45;14.23;;;;;;;11.99;57.24;100129.84;1779888;78;21116;-70
2021/10/21 04:34:19;;;;;;;18.05;13.75;;;;;;;11.99;57.28;100128.51;1797458;78;20960;-71
2021/10/21 04:36:45;;;;;;;16.82;14.13;;;;;;;11.97;57.33;100132.23;1780102;79;21019;-70
2021/10/21 04:39:12;;;;;;;19.32;14.30;;;;;;;11.95;57.36;100125.05;1786001;78;21053;-71
2021/10/21 04:41:38;;;;;;;21.40;15.15;;;;;;;11.95;57.40;100129.06;1792276;78;21176;-71
2021/10/21 04:44:05;;;;;;;18.42;14.53;;;;;;;11.95;57.43;100127.72;1799153;77;21562;-70
2021/10/21 04:46:31;;;;;;;17.92;13.53;;;;;;;11.93;57.44;100125.05;1781226;78;21046;-72
2021/10/21 04:48:58;;;;;;;18.87;14.55;;;;;;;11.93;57.53;100115.14;1791802;78;21765;-71
2021/10/21 04:51:24;;;;;;;16.80;13.28;;;;;;;11.92;57.57;100116.77;1784568;79;20948;-71
2021/10/21 04:53:51;;;;;;;17.98;14.38;;;;;;;11.93;57.56;100111.67;1793143;78;22157;-70
2021/10/21 04:56:18;;;;;;;16.75;12.90;;;;;;;11.93;57.61;100111.67;1782561;78;21117;-73
2021/10/21 04:58:44;;;;;;;17.45;14.80;;;;;;;11.92;57.77;100101.50;1796404;79;21018;-70
2021/10/21 05:01:11;;;;;;;16.27;13.55;;;;;;;11.92;57.82;100105.52;1791713;78;21074;-70
2021/10/21 05:03:38;;;;;;;15.45;13.65;;;;;;;11.92;57.84;100104.73;1792413;78;21580;-70
2021/10/21 05:06:05;;;;;;;17.12;13.95;;;;;;;11.93;57.92;100099.62;1786148;78;21168;-70
2021/10/21 05:08:32;;;;;;;16.45;13.48;;;;;;;11.94;57.95;100108.73;1797637;78;21054;-71
2021/10/21 05:10:59;;;;;;;18.27;14.20;;;;;;;11.96;57.96;100101.75;1786348;79;21057;-71
2021/10/21 05:13:25;;;;;;;18.02;14.43;;;;;;;11.97;57.97;100098.78;1792487;79;21038;-71
2021/10/21 05:15:54;;;;;;;17.07;14.65;;;;;;;12.00;57.94;100112.16;1789249;78;21584;-70
2021/10/21 05:18:20;;;;;;;16.65;13.65;;;;;;;12.02;57.95;100107.34;1787610;78;21103;-71
2021/10/21 05:20:47;;;;;;;18.77;14.03;;;;;;;12.06;57.90;100111.59;1815740;77;21101;-71
2021/10/21 05:23:14;;;;;;;17.57;14.60;;;;;;;12.09;57.88;100119.88;1810697;77;21092;-71
2021/10/21 05:25:41;;;;;;;19.57;14.98;;;;;;;12.14;57.79;100108.31;1798751;77;20943;-71
2021/10/21 05:28:08;;;;;;;17.90;13.75;;;;;;;12.16;57.73;100118.22;1789850;78;20935;-71
2021/10/21 05:30:34;;;;;;;19.27;15.15;;;;;;;12.19;57.71;100114.45;1777663;80;21110;-71
2021/10/21 05:33:02;;;;;;;19.17;14.43;;;;;;;12.22;57.64;100129.16;1780394;78;21498;-72
2021/10/21 05:35:30;;;;;;;18.07;13.90;;;;;;;12.26;57.53;100124.84;1792152;78;21006;-71
2021/10/21 05:37:57;;;;;;;19.82;15.72;;;;;;;12.30;57.49;100122.41;1785663;78;21162;-70
2021/10/21 05:40:25;;;;;;;18.02;14.87;;;;;;;12.34;57.42;100124.27;1793405;78;21101;-71
2021/10/21 05:42:51;;;;;;;18.32;15.50;;;;;;;12.38;57.40;100126.64;1776651;80;21798;-71
2021/10/21 05:45:17;;;;;;;19.12;14.83;;;;;;;12.48;57.29;100130.33;1780621;79;21345;-70
2021/10/21 05:47:46;;;;;;;17.98;14.70;;;;;;;12.55;57.16;100128.92;1767500;80;21105;-70
2021/10/21 05:50:13;;;;;;;17.65;14.60;;;;;;;12.60;57.03;100123.53;1766388;79;21113;-71
2021/10/21 05:52:39;;;;;;;20.35;16.15;;;;;;;12.67;56.90;100121.32;1797609;78;21086;-71
2021/10/21 05:55:08;;;;;;;17.37;15.00;;;;;;;12.72;56.71;100125.83;1803900;79;21221;-71
2021/10/21 05:57:37;;;;;;;19.70;15.53;;;;;;;12.78;56.58;100115.88;1805624;78;21133;-72
2021/10/21 06:00:08;;;;;;;17.85;15.23;;;;;;;12.83;56.44;100121.98;1793535;79;21517;-72
2021/10/21 06:02:37;;;;;;;18.37;14.28;;;;;;;12.87;56.34;100121.67;1800851;78;21023;-71
2021/10/21 06:05:05;;;;;;;19.87;14.63;;;;;;;12.93;56.22;100121.06;1788555;79;21042;-72
2021/10/21 06:07:32;;;;;;;19.92;15.20;;;;;;;12.98;56.14;100122.92;1804281;79;21106;-71
2021/10/21 06:09:58;;;;;;;18.45;15.60;;;;;;;13.04;55.97;100120.45;1806029;78;21038;-72
2021/10/21 06:12:26;;;;;;;18.27;15.10;;;;;;;13.09;55.93;100113.67;1799414;78;21104;-71
2021/10/21 06:14:55;;;;;;;17.27;14.28;;;;;;;13.14;55.79;100110.95;1816915;78;21043;-71
2021/10/21 06:17:24;;;;;;;17.95;14.75;;;;;;;13.18;55.70;100113.86;1798206;79;21117;-71
2021/10/21 06:19:52;;;;;;;15.90;14.13;;;;;;;13.21;55.61;100111.41;1784926;80;21118;-69
2021/10/21 06:22:18;;;;;;;20.02;16.48;;;;;;;13.26;55.53;100102.53;1792845;79;21031;-71
2021/10/21 06:24:46;;;;;;;18.92;15.10;;;;;;;13.30;55.40;100107.05;1803572;79;21011;-71
2021/10/21 06:27:13;;;;;;;20.37;14.83;;;;;;;13.36;55.31;100101.89;1803801;79;21052;-70
2021/10/21 06:29:40;;;;;;;19.35;15.20;;;;;;;13.42;55.26;100114.67;1804036;79;21529;-70
2021/10/21 06:32:08;;;;;;;19.65;15.35;;;;;;;13.48;55.07;100111.40;1803267;79;21124;-71
2021/10/21 06:34:36;;;;;;;17.45;14.85;;;;;;;13.50;54.85;100111.37;1811380;79;21096;-71
2021/10/21 06:37:03;;;;;;;17.90;15.53;;;;;;;13.55;54.84;100113.19;1810102;79;21090;-72
2021/10/21 06:39:30;;;;;;;18.33;15.07;;;;;;;13.56;54.80;100108.09;1782263;79;21691;-71
2021/10/21 06:41:58;;;;;;;19.27;15.70;;;;;;;13.58;54.70;100103.22;1791957;79;21243;-72
2021/10/21 06:44:25;;;;;;;17.90;14.27;;;;;;;13.61;54.63;100090.57;1810499;79;21431;-70
2021/10/21 06:46:52;;;;;;;18.57;16.33;;;;;;;13.65;54.59;100090.24;1814808;78;21193;-70
2021/10/21 06:49:19;;;;;;;18.05;15.23;;;;;;;13.69;54.56;100091.28;1810446;79;21681;-71
2021/10/21 06:51:47;;;;;;;19.00;15.28;;;;;;;13.74;54.35;100093.09;1804739;79;21702;-71
2021/10/21 06:54:14;;;;;;;19.32;14.70;;;;;;;13.77;54.28;100100.02;1803583;79;20991;-71
2021/10/21 06:56:40;;;;;;;17.43;14.90;;;;;;;13.87;54.33;100098.29;1804669;79;21175;-70
2021/10/21 06:59:07;;;;;;;19.50;15.23;;;;;;;13.98;54.15;100097.05;1790492;78;21292;-71
2021/10/21 07:01:34;;;;;;;19.00;15.37;;;;;;;14.09;53.98;100093.14;1803798;78;21219;-71
2021/10/21 07:04:03;;;;;;;18.43;15.13;;;;;;;14.21;53.83;100085.41;1788564;78;22494;-71
2021/10/21 07:06:29;;;;;;;18.63;14.80;;;;;;;14.34;53.44;100083.08;1791454;78;21264;-71
2021/10/21 07:08:57;;;;;;;17.27;14.33;;;;;;;14.46;53.17;100090.14;1797630;79;21303;-70
2021/10/21 07:11:23;;;;;;;16.63;14.43;;;;;;;14.54;52.85;100090.83;1795831;79;21110;-71
2021/10/21 07:13:51;;;;;;;17.07;13.87;;;;;;;14.61;52.81;100089.11;1808648;78;21216;-71
2021/10/21 07:16:18;;;;;;;15.27;13.00;;;;;;;14.71;52.63;100089.75;1798879;78;21285;-71
2021/10/21 07:18:44;;;;;;;14.87;13.37;;;;;;;14.84;52.47;100082.81;1800139;78;21720;-71
2021/10/21 07:21:15;;;;;;;16.73;13.37;;;;;;;14.96;52.18;100084.99;1792973;79;21342;-71
2021/10/21 07:23:39;;;;;;;19.30;16.17;;;;;;;15.07;52.11;100077.52;1803554;78;21176;-71
2021/10/21 07:26:06;;;;;;;17.53;14.63;;;;;;;15.15;51.44;100079.53;1798798;79;21229;-71
2021/10/21 07:28:32;;;;;;;18.70;14.60;;;;;;;15.23;51.36;100066.19;1791955;78;21205;-71
2021/10/21 07:30:59;;;;;;;17.13;13.47;;;;;;;15.30;51.31;100070.34;1800936;78;21704;-71
2021/10/21 07:33:26;;;;;;;17.27;14.70;;;;;;;15.39;51.22;100070.69;1810296;78;21278;-71
2021/10/21 07:35:54;;;;;;;18.70;15.20;;;;;;;15.54;51.05;100066.11;1804036;79;21399;-71
2021/10/21 07:38:21;;;;;;;19.53;14.67;;;;;;;15.66;50.85;100064.52;1796190;79;21286;-71
2021/10/21 07:40:49;;;;;;;16.47;13.77;;;;;;;15.78;50.45;100065.33;1800762;79;21259;-71
2021/10/21 07:43:16;;;;;;;16.27;13.30;;;;;;;15.90;50.21;100064.25;1805095;78;21281;-71
2021/10/21 07:45:43;;;;;;;15.77;13.33;;;;;;;16.02;49.75;100062.34;1805917;79;21441;-71
2021/10/21 07:48:10;;;;;;;19.63;15.07;;;;;;;16.16;49.36;100058.27;1797972;78;21299;-71
2021/10/21 07:50:37;;;;;;;17.17;13.97;;;;;;;16.20;49.19;100065.19;1790508;78;21391;-71
2021/10/21 07:53:05;;;;;;;18.30;14.43;;;;;;;16.27;49.04;100064.99;1788783;79;21832;-75
2021/10/21 07:55:35;;;;;;;18.43;13.30;;;;;;;16.32;48.55;100061.37;1795950;78;21733;-70
2021/10/21 07:58:03;;;;;;;16.10;13.73;;;;;;;16.37;48.46;100057.21;1785692;79;21345;-73
2021/10/21 08:00:32;;;;;;;16.47;13.77;;;;;;;16.37;48.46;100057.21;1803218;79;21705;-71
2021/10/21 08:03:00;;;;;;;18.90;14.00;;;;;;;16.34;48.39;100046.48;1788181;79;21723;-72
2021/10/21 08:05:28;;;;;;;17.00;13.70;;;;;;;16.34;48.39;100046.48;1791198;79;21423;-71
2021/10/21 08:07:55;;;;;;;16.97;15.10;;;;;;;16.35;48.38;100042.71;1816924;79;21478;-71
2021/10/21 08:10:23;;;;;;;15.67;13.53;;;;;;;16.36;48.41;100035.42;1812162;78;21401;-70
2021/10/21 08:12:51;;;;;;;17.53;14.27;;;;;;;16.38;48.29;100035.88;1801085;78;21467;-70
2021/10/21 08:15:17;;;;;;;16.17;13.80;;;;;;;16.51;48.26;100026.92;1812841;79;21423;-72
2021/10/21 08:17:44;;;;;;;15.83;13.30;;;;;;;16.51;48.26;100026.92;1799508;79;21947;-71
2021/10/21 08:20:13;;;;;;;14.37;12.87;;;;;;;16.71;48.36;100033.67;1799708;79;21556;-71
2021/10/21 08:22:44;;;;;;;15.63;13.93;;;;;;;16.84;47.90;100022.02;1792174;79;21542;-71
2021/10/21 08:25:11;;;;;;;15.95;12.85;;;;;;;16.95;47.21;100017.16;1796507;79;21565;-71
2021/10/21 08:27:38;;;;;;;15.37;13.30;;;;;;;17.19;47.35;100009.20;1813865;79;21565;-72
2021/10/21 08:30:07;;;;;;;15.40;13.10;;;;;;;17.19;47.35;100009.20;1814552;78;21511;-72
2021/10/21 08:32:35;;;;;;;13.73;11.97;;;;;;;17.30;47.13;100010.48;1790179;79;21629;-71
2021/10/21 08:35:03;;;;;;;15.67;12.93;;;;;;;17.40;46.89;100002.08;1791786;79;21741;-73
2021/10/21 08:37:31;;;;;;;16.30;12.90;;;;;;;17.46;46.51;99998.69;1817426;78;21719;-71
2021/10/21 08:39:58;;;;;;;17.73;12.33;;;;;;;17.47;45.86;100001.08;1817264;78;22213;-72
2021/10/21 08:42:24;;;;;;;14.97;12.67;;;;;;;17.50;46.23;99994.23;1808066;79;21662;-73
2021/10/21 08:44:51;;;;;;;15.43;12.27;;;;;;;17.61;46.39;99995.52;1817630;79;21753;-71
2021/10/21 08:47:21;;;;;;;13.13;11.40;;;;;;;17.74;45.78;99995.13;1794618;78;21625;-71
2021/10/21 08:49:47;;;;;;;14.67;12.07;;;;;;;17.88;45.56;99989.02;1787130;79;21786;-71
2021/10/21 08:52:14;;;;;;;13.83;12.33;;;;;;;17.99;45.01;99986.78;1813441;79;21651;-72
2021/10/21 08:54:41;;;;;;;16.67;13.07;;;;;;;18.11;44.91;99986.13;1817149;79;21685;-72
2021/10/21 08:57:14;;;;;;;14.97;12.47;;;;;;;18.15;44.41;99982.45;1790741;78;21776;-71
2021/10/21 08:59:45;;;;;;;15.00;12.50;;;;;;;18.15;44.17;99975.70;1803526;79;21654;-70
2021/10/21 09:02:23;;;;;;;15.68;12.47;;;;;;;18.15;44.11;99972.21;1797997;79;21653;-71
2021/10/21 09:05:07;;;;;;;14.23;12.27;;;;;;;18.15;44.09;99965.45;1769228;79;21011;-72
2021/10/21 09:10:16;;;;;;;13.53;11.43;;;;;;;18.18;43.83;99949.95;1815631;79;21734;-70
2021/10/21 09:12:48;;;;;;;16.37;11.93;;;;;;;18.23;43.78;99938.41;1811513;79;21717;-71
2021/10/21 09:15:18;;;;;;;15.38;12.13;;;;;;;18.33;43.61;99935.91;1798935;79;21745;-71
2021/10/21 09:17:46;;;;;;;14.70;11.80;;;;;;;18.55;42.98;99929.44;1801912;78;21554;-70
2021/10/21 09:20:25;;;;;;;15.77;11.93;;;;;;;18.55;42.98;99929.44;1811895;79;21081;-71
2021/10/21 09:22:56;;;;;;;15.07;11.97;;;;;;;18.63;42.75;99929.97;1789425;79;21775;-71
2021/10/21 09:25:24;;;;;;;13.33;11.90;;;;;;;18.70;42.28;99907.81;1788683;79;21881;-71
2021/10/21 09:27:51;;;;;;;12.80;10.67;;;;;;;18.72;42.03;99911.82;1816659;78;21027;-71
2021/10/21 09:30:31;;;;;;;12.27;9.67;;;;;;;18.75;42.39;99904.94;1811706;78;21093;-71
2021/10/21 09:33:03;;;;;;;11.83;10.07;;;;;;;18.82;42.07;99908.48;1815470;79;21428;-71
2021/10/21 09:35:31;;;;;;;15.03;10.47;;;;;;;18.90;41.98;99895.47;1816388;79;20967;-73
2021/10/21 09:37:58;;;;;;;12.90;10.53;;;;;;;19.02;41.59;99891.49;1764926;80;22169;-70
2021/10/21 09:40:30;;;;;;;13.17;10.70;;;;;;;19.09;41.60;99893.11;1801979;79;21042;-71
2021/10/21 09:43:05;;;;;;;13.95;11.70;;;;;;;19.20;41.43;99878.61;1803546;78;21485;-71
2021/10/21 09:45:36;;;;;;;13.90;10.30;;;;;;;19.27;41.04;99886.98;1816984;78;21522;-72
2021/10/21 09:48:05;;;;;;;12.10;10.47;;;;;;;19.31;41.19;99881.13;1812377;78;21031;-71
2021/10/21 09:50:45;;;;;;;12.55;10.30;;;;;;;19.37;41.36;99881.16;1817920;78;21050;-71
2021/10/21 09:53:20;;;;;;;12.73;11.20;;;;;;;19.60;41.26;99868.61;1817299;78;21487;-71
2021/10/21 09:56:02;;;;;;;16.77;11.23;;;;;;;19.76;41.14;99866.88;1816705;78;20995;-71
2021/10/21 09:58:38;;;;;;;12.58;11.28;;;;;;;19.90;40.76;99861.14;1794622;79;21514;-71
2021/10/21 10:01:14;;;;;;;19.33;12.40;;;;;;;20.00;40.62;99859.91;1815221;78;21487;-72
2021/10/21 10:03:44;;;;;;;13.73;11.00;;;;;;;20.01;40.39;99846.04;1808206;79;21139;-71
2021/10/21 10:06:12;;;;;;;14.23;11.67;;;;;;;20.01;40.51;99843.33;1790275;79;21055;-71
2021/10/21 10:08:39;;;;;;;13.77;11.40;;;;;;;20.01;40.45;99837.12;1799497;78;21016;-71
2021/10/21 10:11:20;;;;;;;14.63;11.80;;;;;;;20.05;40.46;99842.09;1792286;78;21121;-70
2021/10/21 10:13:50;;;;;;;14.70;11.20;;;;;;;20.05;40.01;99838.80;1809310;78;20991;-70
2021/10/21 10:16:17;;;;;;;12.23;10.07;;;;;;;20.10;40.13;99840.49;1804628;78;21287;-71
2021/10/21 10:18:46;;;;;;;13.73;10.33;;;;;;;20.19;39.70;99835.76;1795835;79;21030;-71
2021/10/21 10:21:23;;;;;;;11.93;10.63;;;;;;;20.29;39.33;99830.45;1793658;79;21066;-70
2021/10/21 10:23:58;;;;;;;13.70;10.57;;;;;;;20.39;39.10;99832.13;1802690;79;21027;-71
2021/10/21 10:26:49;;;;;;;14.23;11.37;;;;;;;20.51;39.17;99822.45;1796922;78;21038;-71
2021/10/21 10:29:42;;;;;;;14.33;10.47;;;;;;;20.65;39.00;99820.15;1786683;79;21978;-70
2021/10/21 10:32:43;;;;;;;13.93;10.70;;;;;;;20.79;38.81;99813.77;1800315;79;21007;-70
2021/10/21 10:35:16;;;;;;;13.40;10.57;;;;;;;20.87;38.24;99813.44;1791660;79;21569;-70
2021/10/21 10:37:48;;;;;;;15.17;10.73;;;;;;;20.83;38.02;99803.83;1799469;79;21214;-70
2021/10/21 10:40:14;;;;;;;13.08;10.20;;;;;;;20.69;38.03;99799.33;1812971;79;21545;-71
2021/10/21 10:42:47;;;;;;;13.00;9.80;;;;;;;20.70;38.43;99799.58;1795771;79;21816;-71
2021/10/21 10:45:13;;;;;;;14.37;9.77;;;;;;;20.79;37.97;99790.70;1805177;79;21572;-71
2021/10/21 10:47:57;;;;;;;14.17;9.97;;;;;;;20.93;37.84;99785.48;1797867;79;21475;-70
2021/10/21 10:50:30;;;;;;;12.33;10.03;;;;;;;21.09;38.01;99771.36;1795817;79;21014;-71
2021/10/21 10:53:05;;;;;;;11.83;10.23;;;;;;;21.28;37.84;99770.14;1805036;79;21065;-71
2021/10/21 10:55:47;;;;;;;11.93;9.57;;;;;;;21.43;37.42;99764.55;1811494;78;21656;-71
2021/10/21 10:58:26;;;;;;;12.80;11.20;;;;;;;21.57;36.78;99758.69;1803390;79;21570;-71
2021/10/21 11:00:59;;;;;;;12.13;10.80;;;;;;;21.69;36.64;99766.77;1794824;79;21124;-71
2021/10/21 11:03:39;;;;;;;12.37;9.93;;;;;;;21.84;36.26;99765.16;1804323;78;21086;-72
2021/10/21 11:06:06;;;;;;;13.37;10.30;;;;;;;21.94;36.16;99763.27;1783177;80;21636;-71
2021/10/21 11:09:05;;;;;;;12.00;9.97;;;;;;;21.92;35.74;99753.91;1798460;79;21492;-71
2021/10/21 11:11:52;;;;;;;13.37;11.03;;;;;;;21.87;35.90;99757.66;1785425;80;21015;-70
2021/10/21 11:14:47;;;;;;;16.60;11.63;;;;;;;21.77;35.83;99752.19;1791700;79;21078;-71
2021/10/21 11:17:14;;;;;;;14.53;11.70;;;;;;;21.71;35.91;99753.59;1817624;79;21082;-70
2021/10/21 11:19:48;;;;;;;14.50;11.07;;;;;;;21.67;36.32;99750.58;1803918;79;21439;-70
2021/10/21 11:22:25;;;;;;;14.67;11.20;;;;;;;21.67;36.30;99736.41;1802823;79;21547;-70